Sant Just Desvern, Spain
Current Conditions -  °F | °C
As of 5:00 AM on Friday 21 Nov 2014 (Local Time) from LEBL Reporting Station
Broken Clouds Broken Clouds  
Wind Chill: 15°   Ceiling: 3000
Heat Index: 15°   Visibility: 6mi
Dew Point: 11°   Wind: 9mph
Humidity: 77%   Direction: 330°NNW
Pressure: 30.12"   Gusts: NA
Location:  41.39°N, 2.08°E
Report Text: LEBL 210400Z 33008KT 9999 FEW015 BKN030 15/11 Q1020 NOSIG
Loading
Personal Weather Stations






























Interactive Weather Map New forecast layout! Learn more

10-Day Weather Forecast

Advertisements
Track Severe Weather on mobile